Time;durP1;ratioP1;P1;durP2;ratioP2;P2;SDS_P1;SDS_P2;PMS_P1;PMS_P2;Temp;Humidity;BMP_temperature;BMP_pressure;BME280_temperature;BME280_humidity;BME280_pressure;Samples;Min_cycle;Max_cycle;Signal;HPM_P1;HPM_P2
2023/08/28 00:02:11;;;;;;;2.92;1.40;;;;;;;13.93;100.00;100275.94;4972332;28;20063;-61
2023/08/28 00:04:38;;;;;;;3.45;1.60;;;;;;;13.82;100.00;100277.28;4972070;28;20073;-62
2023/08/28 00:07:05;;;;;;;4.43;1.90;;;;;;;14.01;100.00;100283.06;4972290;28;20042;-61
2023/08/28 00:09:32;;;;;;;3.58;1.60;;;;;;;13.89;100.00;100281.91;4972467;28;20051;-60
2023/08/28 00:11:58;;;;;;;3.63;1.38;;;;;;;13.91;100.00;100291.50;4955202;28;20047;-65
2023/08/28 00:14:26;;;;;;;3.28;1.38;;;;;;;13.94;100.00;100291.09;4972753;28;20105;-61
2023/08/28 00:16:53;;;;;;;1.63;1.10;;;;;;;13.99;100.00;100293.22;4972092;28;20474;-61
2023/08/28 00:19:20;;;;;;;1.75;1.17;;;;;;;13.91;100.00;100296.88;4971834;28;20051;-60
2023/08/28 00:21:47;;;;;;;3.80;1.27;;;;;;;14.01;100.00;100299.22;4972151;28;20110;-61
2023/08/28 00:24:13;;;;;;;1.80;1.25;;;;;;;14.06;100.00;100310.28;4972070;28;20051;-61
2023/08/28 00:26:40;;;;;;;2.30;1.00;;;;;;;13.99;100.00;100312.09;4971955;28;20464;-62
2023/08/28 00:29:08;;;;;;;3.33;1.00;;;;;;;13.98;100.00;100311.25;4971700;28;20051;-62
2023/08/28 00:31:35;;;;;;;1.40;1.10;;;;;;;14.01;100.00;100320.81;4971808;28;20055;-61
2023/08/28 00:34:03;;;;;;;1.42;0.82;;;;;;;13.76;100.00;100331.13;4971883;28;20047;-62
2023/08/28 00:36:30;;;;;;;1.67;1.08;;;;;;;13.82;100.00;100336.59;4971988;28;20054;-61
2023/08/28 00:38:57;;;;;;;3.92;1.30;;;;;;;13.87;100.00;100333.31;4972255;28;20101;-61
2023/08/28 00:41:23;;;;;;;2.90;1.10;;;;;;;13.92;100.00;100330.06;4971762;28;20549;-62
2023/08/28 00:43:51;;;;;;;2.50;1.00;;;;;;;14.08;100.00;100337.91;4971083;28;20077;-61
2023/08/28 00:46:17;;;;;;;1.25;0.68;;;;;;;14.06;100.00;100334.56;4954404;28;20117;-61
2023/08/28 00:48:44;;;;;;;1.35;0.85;;;;;;;13.96;100.00;100334.06;4971572;28;20138;-61
2023/08/28 00:51:10;;;;;;;1.92;0.95;;;;;;;14.12;100.00;100333.81;4971190;28;20077;-60
2023/08/28 00:53:37;;;;;;;3.15;1.10;;;;;;;13.79;100.00;100339.69;4971467;28;20558;-61
2023/08/28 00:56:04;;;;;;;1.35;1.05;;;;;;;13.54;100.00;100341.03;4971375;28;20047;-61
2023/08/28 00:58:32;;;;;;;4.25;1.15;;;;;;;13.33;100.00;100339.09;4971430;28;20051;-61
2023/08/28 01:00:59;;;;;;;4.47;0.90;;;;;;;13.01;100.00;100341.16;4971180;28;20047;-64
2023/08/28 01:03:26;;;;;;;1.30;1.00;;;;;;;13.07;100.00;100347.66;4971933;28;20046;-60
2023/08/28 01:09:52;;;;;;;2.63;1.00;;;;;;;12.84;100.00;100353.13;4970516;28;20130;-61
2023/08/28 01:12:29;;;;;;;3.65;1.45;;;;;;;13.04;100.00;100350.72;4970966;28;20121;-61
2023/08/28 01:15:16;;;;;;;1.55;0.80;;;;;;;12.72;100.00;100350.00;4970906;28;20117;-60
2023/08/28 01:17:46;;;;;;;1.50;0.90;;;;;;;12.65;100.00;100351.75;4971293;28;20043;-61
2023/08/28 01:20:15;;;;;;;2.10;1.17;;;;;;;12.56;100.00;100347.50;4971297;28;20077;-62
2023/08/28 01:22:58;;;;;;;2.53;1.00;;;;;;;12.73;100.00;100349.00;4970697;28;20042;-61
2023/08/28 01:25:28;;;;;;;4.47;1.45;;;;;;;12.80;100.00;100355.34;4970756;28;20431;-60
2023/08/28 01:27:56;;;;;;;2.65;1.00;;;;;;;12.80;100.00;100349.13;4970293;28;20051;-60
2023/08/28 01:30:23;;;;;;;4.13;1.38;;;;;;;12.50;100.00;100345.53;4970818;28;20070;-61
2023/08/28 01:32:50;;;;;;;2.65;1.13;;;;;;;12.41;100.00;100347.44;4970662;28;20047;-62
2023/08/28 01:35:29;;;;;;;4.68;1.20;;;;;;;12.20;100.00;100341.91;4971437;28;20460;-60
2023/08/28 01:38:23;;;;;;;2.42;0.90;;;;;;;12.28;100.00;100336.44;4970883;28;20050;-60
2023/08/28 01:40:54;;;;;;;2.45;1.20;;;;;;;12.33;100.00;100342.97;4970550;28;20113;-61
2023/08/28 01:43:23;;;;;;;3.10;1.10;;;;;;;12.06;100.00;100351.59;4970856;28;20047;-61
2023/08/28 01:45:51;;;;;;;1.23;1.08;;;;;;;11.95;100.00;100343.94;4971003;28;20074;-61
2023/08/28 01:48:17;;;;;;;5.72;1.42;;;;;;;11.79;100.00;100340.31;4971091;28;20573;-60
2023/08/28 01:50:44;;;;;;;2.30;1.13;;;;;;;11.86;100.00;100327.88;4970935;28;20101;-60
2023/08/28 01:53:12;;;;;;;3.30;1.15;;;;;;;11.86;100.00;100337.75;4970707;28;20046;-60
2023/08/28 01:55:45;;;;;;;3.42;1.20;;;;;;;11.73;100.00;100340.22;4973024;28;20558;-61
2023/08/28 01:58:12;;;;;;;4.03;1.40;;;;;;;11.77;100.00;100331.63;4974223;28;20047;-61
2023/08/28 02:00:39;;;;;;;3.20;1.10;;;;;;;11.83;100.00;100322.00;4974140;28;20047;-62
2023/08/28 02:03:08;;;;;;;2.63;1.40;;;;;;;11.74;100.00;100321.22;4974424;28;20101;-61
2023/08/28 02:05:35;;;;;;;3.45;1.20;;;;;;;11.79;100.00;100318.81;4974638;28;20057;-60
2023/08/28 02:08:02;;;;;;;2.67;1.25;;;;;;;11.78;100.00;100317.16;4974470;28;20454;-60
2023/08/28 02:10:28;;;;;;;2.63;1.10;;;;;;;11.78;100.00;100319.00;4974439;28;20055;-60
2023/08/28 02:12:55;;;;;;;2.97;1.20;;;;;;;11.77;100.00;100315.50;4974361;28;20446;-61
2023/08/28 02:15:22;;;;;;;2.25;1.30;;;;;;;11.58;100.00;100305.16;4974304;28;20109;-61
2023/08/28 02:17:48;;;;;;;2.95;1.38;;;;;;;11.46;100.00;100302.03;4974356;28;20047;-62
2023/08/28 02:20:16;;;;;;;4.00;1.15;;;;;;;11.31;100.00;100290.34;4974989;28;20047;-60
2023/08/28 02:22:43;;;;;;;1.50;1.20;;;;;;;11.25;100.00;100294.59;4974069;28;20162;-61
2023/08/28 02:25:11;;;;;;;2.65;1.15;;;;;;;11.05;100.00;100274.56;4974151;28;20063;-61
2023/08/28 02:27:37;;;;;;;2.45;1.33;;;;;;;10.79;100.00;100256.88;4974083;28;20159;-60
2023/08/28 02:30:05;;;;;;;4.60;1.58;;;;;;;10.71;100.00;100251.53;4973539;28;20097;-60
2023/08/28 02:32:32;;;;;;;2.25;1.20;;;;;;;10.63;100.00;100241.66;4973484;28;20113;-61
2023/08/28 02:34:59;;;;;;;2.88;1.50;;;;;;;10.54;100.00;100236.47;4973937;28;20047;-61
2023/08/28 02:37:26;;;;;;;3.55;1.38;;;;;;;10.49;100.00;100229.75;4973843;28;20105;-61
2023/08/28 02:39:52;;;;;;;5.68;1.48;;;;;;;10.47;100.00;100223.72;4973784;28;20540;-62
2023/08/28 02:42:19;;;;;;;2.58;1.30;;;;;;;10.53;100.00;100226.78;4973954;28;20561;-60
2023/08/28 02:44:47;;;;;;;2.70;1.50;;;;;;;10.48;100.00;100228.09;4974315;28;20058;-60
2023/08/28 02:47:13;;;;;;;3.25;1.40;;;;;;;10.41;100.00;100237.84;4973690;28;20470;-60
2023/08/28 02:49:40;;;;;;;5.15;1.45;;;;;;;10.34;100.00;100238.66;4973763;28;20089;-62
2023/08/28 02:52:06;;;;;;;4.97;1.27;;;;;;;10.22;100.00;100222.13;4973039;28;20519;-62
2023/08/28 02:54:33;;;;;;;2.60;1.42;;;;;;;10.05;100.00;100207.88;4973588;28;20109;-61
2023/08/28 02:57:00;;;;;;;4.40;1.60;;;;;;;10.08;100.00;100209.41;4973722;28;20511;-61
2023/08/28 02:59:27;;;;;;;3.90;1.38;;;;;;;10.10;100.00;100228.81;4973237;28;20368;-61
2023/08/28 03:01:54;;;;;;;2.85;1.63;;;;;;;9.96;100.00;100230.38;4973586;28;20105;-61
2023/08/28 03:04:20;;;;;;;5.03;1.40;;;;;;;9.86;100.00;100209.09;4973576;28;20046;-61
2023/08/28 03:06:47;;;;;;;3.72;1.98;;;;;;;9.94;100.00;100230.50;4955787;28;20046;-61
2023/08/28 03:09:14;;;;;;;2.67;1.30;;;;;;;10.21;100.00;100249.94;4973602;28;20106;-62
2023/08/28 03:11:40;;;;;;;3.95;1.60;;;;;;;10.69;100.00;100275.03;4957553;28;20047;-61
2023/08/28 03:14:08;;;;;;;5.40;1.67;;;;;;;10.76;100.00;100305.53;4952895;28;20153;-61
2023/08/28 03:16:35;;;;;;;2.65;1.30;;;;;;;10.69;100.00;100299.16;4962399;28;20553;-61
2023/08/28 03:19:02;;;;;;;3.95;1.80;;;;;;;10.53;100.00;100300.03;4972776;28;20481;-61
2023/08/28 03:21:29;;;;;;;1.73;1.30;;;;;;;10.72;100.00;100293.44;4972866;28;20478;-61
2023/08/28 03:23:55;;;;;;;5.57;1.48;;;;;;;10.62;100.00;100290.97;4973316;28;20043;-61
2023/08/28 03:26:25;;;;;;;4.05;2.40;;;;;;;10.86;100.00;100311.53;4973263;28;20399;-61
2023/08/28 03:28:51;;;;;;;3.10;1.70;;;;;;;10.62;100.00;100306.22;4954951;28;20051;-60
2023/08/28 03:31:18;;;;;;;2.47;1.65;;;;;;;10.58;100.00;100296.81;4967812;28;20523;-64
2023/08/28 03:33:45;;;;;;;8.57;1.85;;;;;;;10.50;100.00;100285.09;4954809;28;20057;-60
2023/08/28 03:36:11;;;;;;;4.65;1.90;;;;;;;10.85;100.00;100309.00;4954067;28;20397;-62
2023/08/28 03:38:38;;;;;;;5.25;1.38;;;;;;;11.27;100.00;100330.16;4953043;28;20066;-60
2023/08/28 03:41:07;;;;;;;5.60;1.77;;;;;;;11.70;100.00;100379.03;4952996;28;20071;-60
2023/08/28 03:43:34;;;;;;;9.73;3.28;;;;;;;11.71;100.00;100388.75;4953736;28;20114;-60
2023/08/28 03:46:01;;;;;;;5.65;1.60;;;;;;;11.73;100.00;100392.13;4953436;28;20109;-60
2023/08/28 03:48:28;;;;;;;4.53;1.63;;;;;;;11.58;100.00;100389.28;4953244;28;20043;-59
2023/08/28 03:50:54;;;;;;;3.22;1.63;;;;;;;11.54;100.00;100397.88;4953189;28;20082;-61
2023/08/28 03:53:21;;;;;;;2.95;1.80;;;;;;;11.45;100.00;100395.22;4953212;28;20043;-60
2023/08/28 03:55:48;;;;;;;6.05;1.75;;;;;;;11.56;100.00;100393.16;4953791;28;20047;-60
2023/08/28 03:58:15;;;;;;;6.22;1.80;;;;;;;11.60;100.00;100394.50;4953326;28;20050;-61
2023/08/28 04:00:42;;;;;;;4.60;1.83;;;;;;;11.68;100.00;100386.41;4966341;28;20058;-61
2023/08/28 04:03:08;;;;;;;3.40;2.00;;;;;;;11.66;100.00;100393.84;4957602;28;20495;-62
2023/08/28 04:05:37;;;;;;;5.72;2.13;;;;;;;11.85;100.00;100393.38;4953462;28;20504;-60
2023/08/28 04:08:05;;;;;;;3.42;1.80;;;;;;;11.95;100.00;100387.78;4952747;28;20467;-61
2023/08/28 04:10:32;;;;;;;6.63;2.45;;;;;;;11.93;100.00;100393.34;4953113;28;20058;-60
2023/08/28 04:12:59;;;;;;;3.85;1.70;;;;;;;11.95;100.00;100393.16;4952771;28;20199;-61
2023/08/28 04:15:26;;;;;;;5.05;2.03;;;;;;;11.96;100.00;100394.81;4935617;28;20051;-60
2023/08/28 04:17:52;;;;;;;4.30;1.50;;;;;;;11.91;100.00;100397.22;4935577;28;20047;-62
2023/08/28 04:20:19;;;;;;;4.15;1.40;;;;;;;12.13;100.00;100392.88;4952876;28;20131;-61
2023/08/28 04:22:46;;;;;;;5.38;2.47;;;;;;;11.95;100.00;100387.78;4953156;28;20043;-60
2023/08/28 04:25:13;;;;;;;5.32;2.22;;;;;;;11.79;100.00;100377.94;4952373;28;20066;-61
2023/08/28 04:27:40;;;;;;;7.20;2.53;;;;;;;11.77;100.00;100374.63;4968502;28;20046;-61
2023/08/28 04:30:09;;;;;;;7.95;2.35;;;;;;;11.74;100.00;100369.59;4972076;28;20047;-61
2023/08/28 04:32:38;;;;;;;6.03;2.88;;;;;;;11.54;100.00;100365.63;4972383;28;20105;-61
2023/08/28 04:35:06;;;;;;;7.65;2.35;;;;;;;11.51;100.00;100368.66;4971816;28;20043;-61
2023/08/28 04:37:34;;;;;;;6.63;2.17;;;;;;;11.20;100.00;100364.09;4971785;28;20683;-60
2023/08/28 04:40:00;;;;;;;3.97;2.40;;;;;;;10.92;100.00;100353.75;4970630;28;20130;-61
2023/08/28 04:42:27;;;;;;;7.57;2.53;;;;;;;10.94;100.00;100340.19;4972097;28;20058;-60
2023/08/28 04:44:54;;;;;;;6.43;2.88;;;;;;;11.01;100.00;100343.03;4971378;28;20075;-60
2023/08/28 04:47:22;;;;;;;5.53;2.35;;;;;;;10.87;100.00;100336.50;4953586;28;20051;-60
2023/08/28 04:49:48;;;;;;;7.38;2.53;;;;;;;11.06;100.00;100325.38;4952873;28;20487;-61
2023/08/28 04:52:15;;;;;;;5.75;2.95;;;;;;;10.95;100.00;100336.47;4952768;28;20115;-61
2023/08/28 04:54:41;;;;;;;6.38;3.22;;;;;;;10.85;100.00;100327.78;4952888;28;20488;-61
2023/08/28 04:57:08;;;;;;;10.57;2.83;;;;;;;10.89;100.00;100321.06;4952720;28;20118;-61
2023/08/28 04:59:34;;;;;;;7.75;2.78;;;;;;;10.74;100.00;100319.09;4956616;28;20047;-61
2023/08/28 05:02:01;;;;;;;3.42;2.05;;;;;;;11.00;100.00;100304.59;4971457;28;20110;-61
2023/08/28 05:04:27;;;;;;;7.38;3.40;;;;;;;10.95;100.00;100326.56;4971021;28;20241;-60
2023/08/28 05:06:54;;;;;;;5.97;2.70;;;;;;;10.72;100.00;100304.16;4971503;28;20050;-60
2023/08/28 05:09:21;;;;;;;7.20;3.03;;;;;;;10.45;100.00;100302.69;4971650;28;20491;-62
2023/08/28 05:11:47;;;;;;;3.85;2.67;;;;;;;10.42;100.00;100308.41;4972048;28;20376;-61
2023/08/28 05:14:14;;;;;;;12.82;5.28;;;;;;;10.05;100.00;100272.22;4971296;28;20097;-60
2023/08/28 05:16:40;;;;;;;17.75;9.25;;;;;;;9.77;100.00;100240.38;4971643;28;20447;-61
2023/08/28 05:19:07;;;;;;;8.35;3.88;;;;;;;9.31;100.00;100190.97;4971152;28;20121;-61
2023/08/28 05:21:33;;;;;;;10.52;3.58;;;;;;;10.11;100.00;100257.31;4970823;28;20066;-60
2023/08/28 05:24:00;;;;;;;6.78;2.78;;;;;;;10.00;100.00;100255.81;4970363;28;20090;-60
2023/08/28 05:26:27;;;;;;;4.30;2.65;;;;;;;9.73;100.00;100222.16;4970639;28;20428;-60
2023/08/28 05:28:53;;;;;;;13.68;3.17;;;;;;;9.69;100.00;100210.09;4970932;28;20175;-60
2023/08/28 05:31:20;;;;;;;7.90;3.45;;;;;;;7.51;100.00;99907.06;4971278;28;20058;-60
2023/08/28 05:33:46;;;;;;;5.72;3.17;;;;;;;6.19;100.00;99685.22;4971128;28;20077;-62
2023/08/28 05:36:14;;;;;;;7.93;3.60;;;;;;;7.47;100.00;99900.38;4971427;28;20043;-62
2023/08/28 05:38:40;;;;;;;10.50;3.13;;;;;;;6.91;100.00;99808.38;4970770;28;20054;-61
2023/08/28 05:41:07;;;;;;;5.40;3.33;;;;;;;7.40;100.00;99910.00;4971886;28;20130;-61
2023/08/28 05:43:33;;;;;;;10.80;4.30;;;;;;;7.63;100.00;99937.78;4971221;28;20105;-61
2023/08/28 05:46:00;;;;;;;6.05;3.20;;;;;;;8.00;100.00;99986.53;4971043;28;20081;-60
2023/08/28 05:48:26;;;;;;;4.00;3.15;;;;;;;7.99;100.00;100035.63;4971235;28;20081;-59
2023/08/28 05:50:53;;;;;;;5.65;3.10;;;;;;;3.10;100.00;99297.00;4970978;28;20503;-60
2023/08/28 05:53:20;;;;;;;5.60;3.25;;;;;;;-50.22;100.00;90799.38;4971140;28;20504;-60
2023/08/28 05:55:47;;;;;;;6.85;2.90;;;;;;;-15.39;100.00;96324.41;4971600;28;20077;-60
2023/08/28 05:58:17;;;;;;;5.70;3.40;;;;;;;-23.89;100.00;94964.09;4971297;28;20407;-60
2023/08/28 06:00:43;;;;;;;4.45;3.05;;;;;;;-149.70;100.00;76522.00;4971220;28;20046;-64
2023/08/28 06:03:10;;;;;;;6.05;3.10;;;;;;;-149.70;100.00;76534.22;4971301;28;20491;-60
2023/08/28 06:05:38;;;;;;;5.82;3.28;;;;;;;-149.70;100.00;76513.88;4970525;28;20054;-61
2023/08/28 06:08:06;;;;;;;7.00;3.45;;;;;;;-21.60;100.00;95322.09;4970947;28;20466;-66
2023/08/28 06:10:38;;;;;;;7.88;3.58;;;;;;;-8.10;100.00;97478.72;4971448;28;20062;-60
2023/08/28 06:13:04;;;;;;;;;;;;;;;3.23;100.00;99296.66;4971353;28;20051;-61
2023/08/28 06:15:31;;;;;;;6.93;3.72;;;;;;;6.43;100.00;99807.13;4970524;28;19973;-60
2023/08/28 06:17:58;;;;;;;8.60;3.63;;;;;;;8.16;100.00;100087.28;4970590;28;20047;-61
2023/08/28 06:20:25;;;;;;;7.50;3.53;;;;;;;7.34;100.00;99978.19;4952994;28;20502;-61
2023/08/28 06:22:51;;;;;;;12.73;3.40;;;;;;;8.31;100.00;100120.44;4971065;28;20151;-60
2023/08/28 06:25:18;;;;;;;3.60;3.00;;;;;;;8.25;100.00;100097.00;4971565;28;20185;-60
2023/08/28 06:27:45;;;;;;;6.03;3.38;;;;;;;9.31;100.00;100233.81;4971103;28;20043;-60
2023/08/28 06:30:12;;;;;;;8.60;3.40;;;;;;;9.83;100.00;100281.75;4970704;28;20042;-61
2023/08/28 06:32:38;;;;;;;6.57;3.65;;;;;;;10.13;100.00;100338.38;4970691;28;21692;-61
2023/08/28 06:35:05;;;;;;;11.75;2.90;;;;;;;10.53;100.00;100355.50;4970715;28;20101;-60
2023/08/28 06:37:32;;;;;;;6.35;3.20;;;;;;;10.75;100.00;100373.59;4970572;28;20121;-60
2023/08/28 06:39:58;;;;;;;4.15;2.92;;;;;;;10.90;100.00;100388.00;4970609;28;20403;-63
2023/08/28 06:42:25;;;;;;;7.55;3.35;;;;;;;11.02;100.00;100384.94;4971907;28;20069;-61
2023/08/28 06:44:52;;;;;;;10.85;3.35;;;;;;;11.24;100.00;100386.91;4974266;28;20131;-61
2023/08/28 06:47:19;;;;;;;5.05;2.42;;;;;;;11.93;100.00;100398.72;4974255;28;20051;-62
2023/08/28 06:49:45;;;;;;;4.25;1.83;;;;;;;12.58;100.00;100401.94;4973899;28;20067;-62
2023/08/28 06:52:12;;;;;;;5.93;1.95;;;;;;;12.84;100.00;100405.13;4973768;28;20469;-63
2023/08/28 06:54:39;;;;;;;8.60;2.55;;;;;;;13.24;100.00;100413.78;4972400;28;20062;-62
2023/08/28 06:57:09;;;;;;;4.65;2.13;;;;;;;13.54;100.00;100427.25;4971998;28;20784;-61
2023/08/28 07:52:53;;;;;;;9.95;1.52;;;;;;;16.26;100.00;100466.53;4998834;23;20434;-74
2023/08/28 07:55:20;;;;;;;4.35;1.40;;;;;;;16.25;100.00;100473.00;4952364;28;20051;-75
2023/08/28 13:49:58;;;;;;;2.45;1.00;;;;;;;17.82;95.81;100378.28;5672812;23;20046;-71
2023/08/28 13:52:26;;;;;;;6.70;1.30;;;;;;;17.87;95.17;100383.03;4973676;28;20051;-70
2023/08/28 13:54:52;;;;;;;2.40;1.00;;;;;;;17.63;99.47;100375.66;4974802;28;20487;-70
2023/08/28 13:57:19;;;;;;;5.22;0.90;;;;;;;17.72;97.20;100374.34;4974698;28;20050;-70
2023/08/28 13:59:45;;;;;;;6.90;1.10;;;;;;;17.93;94.09;100367.78;4974061;28;20051;-69
2023/08/28 14:02:13;;;;;;;5.38;1.10;;;;;;;17.79;98.03;100380.59;4974151;28;20039;-70
2023/08/28 14:04:40;;;;;;;6.30;1.20;;;;;;;17.83;96.64;100384.53;4974618;28;20042;-69
2023/08/28 14:07:07;;;;;;;4.25;1.20;;;;;;;17.90;93.62;100393.47;4959101;28;20167;-69
2023/08/28 14:09:34;;;;;;;5.93;1.13;;;;;;;17.92;93.87;100385.91;4975006;28;20051;-68
2023/08/28 14:12:00;;;;;;;2.50;1.17;;;;;;;17.93;93.88;100387.59;4974539;28;20051;-69
2023/08/28 14:14:27;;;;;;;6.32;1.00;;;;;;;17.73;92.96;100392.28;4974245;28;20466;-68
2023/08/28 14:16:54;;;;;;;3.03;0.93;;;;;;;17.73;94.44;100403.16;4974271;28;20133;-68
2023/08/28 14:19:22;;;;;;;8.93;1.60;;;;;;;17.89;93.63;100410.81;4973460;28;20054;-68
2023/08/28 14:21:48;;;;;;;4.03;1.80;;;;;;;17.56;97.10;100414.47;4973875;28;20455;-68
2023/08/28 14:24:15;;;;;;;15.55;4.60;;;;;;;17.72;94.09;100396.91;4974803;28;20455;-67
2023/08/28 14:26:42;;;;;;;4.05;1.38;;;;;;;17.62;96.09;100392.97;4974290;28;20454;-69
2023/08/28 14:29:08;;;;;;;2.50;1.05;;;;;;;17.73;93.93;100386.88;4974483;28;20077;-70
2023/08/28 14:31:36;;;;;;;1.17;0.85;;;;;;;17.59;94.08;100391.53;4973487;28;20047;-70
2023/08/28 14:34:03;;;;;;;2.55;1.10;;;;;;;17.62;93.10;100403.81;4974239;28;20061;-69
2023/08/28 14:36:29;;;;;;;6.13;0.90;;;;;;;17.41;93.90;100411.19;4973543;28;20198;-68
2023/08/28 14:38:56;;;;;;;3.95;1.05;;;;;;;17.50;95.02;100409.06;4973818;28;20046;-68
2023/08/28 14:41:23;;;;;;;6.40;1.60;;;;;;;17.38;96.75;100405.38;4973479;28;20046;-68
2023/08/28 14:43:49;;;;;;;7.85;1.00;;;;;;;17.35;99.43;100406.63;4973608;28;20043;-68
2023/08/28 14:46:16;;;;;;;6.20;1.45;;;;;;;17.33;100.00;100393.22;4974550;28;20502;-67
2023/08/28 14:48:44;;;;;;;3.63;0.80;;;;;;;17.51;98.20;100402.59;4973845;28;20042;-68
2023/08/28 14:51:10;;;;;;;4.72;1.20;;;;;;;17.20;100.00;100392.41;4973626;28;20058;-68
2023/08/28 14:53:37;;;;;;;2.78;1.33;;;;;;;17.39;100.00;100407.03;4974792;28;20050;-68
2023/08/28 14:56:04;;;;;;;3.75;1.00;;;;;;;17.05;100.00;100409.75;4975005;28;20042;-69
2023/08/28 14:58:31;;;;;;;8.15;1.60;;;;;;;17.20;100.00;100417.69;4974319;28;20050;-68
2023/08/28 15:00:58;;;;;;;13.13;4.78;;;;;;;17.27;100.00;100412.25;4975126;28;20106;-68
2023/08/28 15:03:24;;;;;;;4.03;1.85;;;;;;;17.27;100.00;100410.34;4974448;28;20051;-68
2023/08/28 15:05:51;;;;;;;3.72;1.45;;;;;;;17.22;100.00;100401.19;4973756;28;20050;-68
2023/08/28 15:08:19;;;;;;;6.18;1.05;;;;;;;17.17;100.00;100384.75;4975161;28;20553;-68
2023/08/28 15:10:46;;;;;;;1.55;0.82;;;;;;;17.30;99.52;100392.81;4976093;28;20526;-67
2023/08/28 15:13:12;;;;;;;10.60;1.05;;;;;;;17.03;100.00;100395.59;4975856;28;20050;-68
2023/08/28 15:15:46;;;;;;;5.80;1.08;;;;;;;17.13;100.00;100396.00;4975457;28;20114;-68
2023/08/28 15:18:13;;;;;;;5.13;0.90;;;;;;;16.99;100.00;100407.91;4975231;28;20070;-69
2023/08/28 15:20:40;;;;;;;4.50;0.98;;;;;;;17.05;100.00;100406.22;4975200;28;20047;-68
2023/08/28 15:23:07;;;;;;;8.52;1.33;;;;;;;17.13;100.00;100414.97;4975571;28;20058;-68
2023/08/28 15:25:34;;;;;;;4.38;1.13;;;;;;;17.13;100.00;100414.16;4976155;28;20051;-68
2023/08/28 15:28:00;;;;;;;3.22;1.33;;;;;;;16.93;100.00;100424.16;4961167;28;20066;-68
2023/08/28 15:30:29;;;;;;;7.63;1.20;;;;;;;16.92;100.00;100425.19;4976980;28;20058;-68
2023/08/28 15:32:56;;;;;;;5.65;0.88;;;;;;;16.72;100.00;100422.50;4978959;28;20055;-68
2023/08/28 15:35:23;;;;;;;6.78;2.03;;;;;;;16.53;100.00;100414.13;4976398;28;20251;-68
2023/08/28 15:37:49;;;;;;;10.45;1.20;;;;;;;16.56;100.00;100411.03;4976701;28;20047;-68
2023/08/28 15:40:16;;;;;;;4.55;0.93;;;;;;;16.61;100.00;100407.72;4976490;28;20078;-68
2023/08/28 15:42:43;;;;;;;7.47;1.38;;;;;;;16.56;100.00;100402.91;4976443;28;20056;-69
2023/08/28 15:45:10;;;;;;;5.63;1.35;;;;;;;16.60;100.00;100398.72;4975042;28;20113;-68
2023/08/28 15:47:37;;;;;;;7.10;1.88;;;;;;;16.47;100.00;100390.59;4975181;28;20109;-68
2023/08/28 15:50:04;;;;;;;2.30;1.55;;;;;;;16.33;100.00;100388.88;4973891;28;20137;-69
2023/08/28 15:52:31;;;;;;;3.75;0.90;;;;;;;16.45;100.00;100392.66;4973098;28;20055;-68
2023/08/28 15:54:57;;;;;;;3.90;0.93;;;;;;;16.37;100.00;100392.88;4973658;28;20134;-68
2023/08/28 15:57:24;;;;;;;8.00;1.30;;;;;;;16.45;100.00;100387.25;4974679;28;20038;-68
2023/08/28 15:59:51;;;;;;;10.82;1.63;;;;;;;16.39;100.00;100390.78;4974770;28;20094;-68
2023/08/28 16:02:17;;;;;;;3.70;1.48;;;;;;;16.36;100.00;100385.75;4975693;28;20105;-68
2023/08/28 16:04:44;;;;;;;4.53;1.20;;;;;;;16.28;100.00;100392.22;4974443;28;20043;-68
2023/08/28 16:07:11;;;;;;;6.28;1.20;;;;;;;16.27;100.00;100389.72;4974304;28;20495;-68
2023/08/28 16:09:38;;;;;;;4.47;1.48;;;;;;;16.32;100.00;100387.22;4974322;28;20121;-68
2023/08/28 16:12:05;;;;;;;6.05;1.23;;;;;;;16.26;100.00;100388.03;4973505;28;20567;-67
2023/08/28 16:14:32;;;;;;;3.67;1.13;;;;;;;16.28;100.00;100388.69;4976251;28;20062;-68
2023/08/28 16:16:59;;;;;;;4.07;1.30;;;;;;;16.21;100.00;100377.84;4975108;28;20439;-68
2023/08/28 16:19:28;;;;;;;7.00;1.00;;;;;;;16.18;100.00;100387.19;4973637;28;20055;-69
2023/08/28 16:21:54;;;;;;;7.25;1.15;;;;;;;16.28;100.00;100392.22;4974840;28;20127;-68
2023/08/28 16:24:21;;;;;;;5.97;1.80;;;;;;;16.19;100.00;100394.31;4975988;28;20051;-69
2023/08/28 16:26:48;;;;;;;5.57;1.40;;;;;;;16.12;100.00;100393.44;4975105;28;20054;-69
2023/08/28 16:29:14;;;;;;;4.28;2.03;;;;;;;16.08;100.00;100400.28;4975343;28;20434;-69
2023/08/28 16:31:41;;;;;;;5.95;1.70;;;;;;;16.06;100.00;100402.38;4974861;28;20058;-69
2023/08/28 16:34:08;;;;;;;10.35;1.77;;;;;;;16.09;100.00;100415.50;4973846;28;20079;-68
2023/08/28 16:36:34;;;;;;;6.45;1.60;;;;;;;15.98;100.00;100418.78;4975518;28;20058;-68
2023/08/28 16:39:02;;;;;;;6.72;1.83;;;;;;;15.96;100.00;100412.75;4960526;28;20425;-68
2023/08/28 16:41:29;;;;;;;2.70;1.40;;;;;;;15.93;100.00;100407.75;4974333;28;20051;-69
2023/08/28 16:43:55;;;;;;;10.70;1.90;;;;;;;15.93;100.00;100403.16;4972559;28;20403;-69
2023/08/28 16:46:22;;;;;;;2.45;1.30;;;;;;;15.91;100.00;100413.34;4972433;28;20117;-66
2023/08/28 16:48:49;;;;;;;7.45;1.10;;;;;;;15.86;100.00;100406.91;4973926;28;20050;-66
2023/08/28 16:51:15;;;;;;;3.55;1.00;;;;;;;15.74;100.00;100409.34;4974373;28;20458;-65
2023/08/28 16:53:42;;;;;;;4.45;1.20;;;;;;;15.84;100.00;100414.38;4973426;28;20050;-65
2023/08/28 16:56:08;;;;;;;5.68;1.10;;;;;;;15.82;100.00;100414.59;4973612;28;20488;-65
2023/08/28 16:58:35;;;;;;;8.57;1.95;;;;;;;15.84;100.00;100420.59;4975415;28;20055;-65
2023/08/28 17:01:02;;;;;;;5.60;1.52;;;;;;;15.80;100.00;100423.94;4974838;28;20051;-65
2023/08/28 17:03:28;;;;;;;6.05;1.67;;;;;;;15.77;100.00;100413.50;4955137;28;20066;-65
2023/08/28 17:05:56;;;;;;;5.25;2.10;;;;;;;15.78;100.00;100420.56;4954425;28;20051;-66
2023/08/28 17:08:24;;;;;;;7.45;1.98;;;;;;;15.76;100.00;100422.66;4956089;28;20065;-66
2023/08/28 17:10:50;;;;;;;6.82;1.88;;;;;;;15.65;100.00;100421.38;4956159;28;20051;-65
2023/08/28 17:13:17;;;;;;;3.95;1.35;;;;;;;15.61;100.00;100420.91;4939718;29;20554;-65
2023/08/28 17:15:44;;;;;;;6.50;1.80;;;;;;;15.59;100.00;100417.56;4956452;28;20047;-65
2023/08/28 17:18:11;;;;;;;5.38;1.60;;;;;;;15.59;100.00;100404.03;4955165;28;20054;-66
2023/08/28 17:20:38;;;;;;;4.40;1.90;;;;;;;15.54;100.00;100409.22;4937825;28;20130;-64
2023/08/28 17:23:04;;;;;;;9.52;1.42;;;;;;;15.48;100.00;100408.16;4955124;28;20051;-64
2023/08/28 17:25:32;;;;;;;6.22;1.85;;;;;;;15.44;100.00;100404.19;4954249;28;20414;-64
2023/08/28 17:27:58;;;;;;;3.38;1.48;;;;;;;15.39;100.00;100400.41;4954143;28;20504;-65
2023/08/28 17:30:25;;;;;;;5.57;1.67;;;;;;;15.31;100.00;100400.56;4954898;28;20043;-65
2023/08/28 17:32:55;;;;;;;3.50;1.27;;;;;;;15.25;100.00;100394.09;4954477;28;20577;-64
2023/08/28 17:35:23;;;;;;;5.38;1.95;;;;;;;15.22;100.00;100400.75;4954627;28;20051;-65
2023/08/28 17:37:50;;;;;;;4.53;2.55;;;;;;;15.33;100.00;100409.28;4953634;28;20106;-65
2023/08/28 17:40:17;;;;;;;9.15;1.52;;;;;;;15.35;100.00;100418.06;4954810;28;20146;-65
2023/08/28 17:42:43;;;;;;;6.00;2.00;;;;;;;15.30;100.00;100412.44;4956254;28;20051;-65
2023/08/28 17:45:10;;;;;;;2.97;1.77;;;;;;;15.28;100.00;100414.47;4954384;28;20094;-65
2023/08/28 17:47:36;;;;;;;7.30;2.05;;;;;;;15.16;100.00;100415.03;4955561;28;20062;-65
2023/08/28 17:50:03;;;;;;;6.15;2.03;;;;;;;15.10;100.00;100418.53;4955670;28;20031;-65
2023/08/28 17:52:30;;;;;;;11.15;1.75;;;;;;;15.14;100.00;100413.56;4955920;28;20054;-65
2023/08/28 17:54:56;;;;;;;6.78;1.55;;;;;;;15.14;100.00;100413.56;4955028;28;20525;-65
2023/08/28 17:57:23;;;;;;;6.82;2.03;;;;;;;15.16;100.00;100416.91;4955716;28;20098;-64
2023/08/28 17:59:51;;;;;;;3.17;1.48;;;;;;;15.12;100.00;100415.63;4955897;28;20051;-64
2023/08/28 18:02:18;;;;;;;3.35;1.50;;;;;;;14.99;100.00;100422.59;4966570;28;20058;-65
2023/08/28 18:04:45;;;;;;;10.32;2.42;;;;;;;14.95;100.00;100418.63;4975635;28;20046;-65
2023/08/28 18:07:11;;;;;;;3.83;1.80;;;;;;;14.94;100.00;100416.94;4974675;28;20063;-65
2023/08/28 18:09:38;;;;;;;5.88;1.65;;;;;;;14.81;100.00;100413.31;4974600;28;20114;-65